メキシコシティ の空港の天気 - METARとTAF

メキシコ・シティ国際空港 ( MMMX / MEX ) - メキシコ メキシコシティ
飛行場実況気象(Metar)
観測時間09/26 06:41 CDT (09/26 11:41 UTC)
風向・風速北 1m/s
視程10km以上
天気現象
全天の8割程度の雲 雲底高度 610m
全天の8割程度の雲 雲底高度 2440m
気温17℃
湿度77%
気圧1004.9hPa
METARMMMX 261141Z 36002KT 8SM BKN020 BKN080 17/13 A3017 NOSIG RMK SLP049 52004 956 8/570 HZY CI
過去の天気等 Google飛行場航空写真 Wunderground天気予報

過去48時間のMETAR

飛行場予報(TAF)
発表時間: 9/26 06:33 CDT (9/26 11:33 UTC)
予報対象時間: 26日7時 CDT ~ 27日13時 CDT
風向・風速北北西 3m/s
視程10km以上
全天の4割程度の雲 雲底高度 610m
全天の8割程度の雲 雲底高度 2,130m
26日16時 CDT から
風向・風速南東 6m/s
視程10km以上
全天の8割程度の積乱雲 雲底高度 460m
全天を覆う雲 雲底高度 2,440m
26日17時 CDT ~ 26日21時 CDT に一時的に
視程3,220m
天気現象雷雨
26日21時 CDT から
風向・風速東 3m/s
視程8,050m
天気現象
全天の8割程度の雲 雲底高度 610m
全天を覆う雲 雲底高度 2,440m
27日1時 CDT から
風向・風速東 3m/s
視程10km以上
全天の4割程度の雲 雲底高度 610m
全天の8割程度の雲 雲底高度 2,440m
27日11時 CDT から
風向・風速東 5m/s
視程10km以上
全天の4割程度の雲 雲底高度 610m
全天の8割程度の雲 雲底高度 3,050m
TAF MMMX 261133Z 2612/2718 33005KT P6SM SCT020 BKN070 TX23/2622Z TN15/2612Z
FM262100 13012KT P6SM BKN015CB OVC080
TEMPO 2622/2702 2SM TSRA
FM270200 08005KT 5SM RA BKN020 OVC080
FM270600 08005KT P6SM SCT020 BKN080
FM271600 08010KT P6SM SCT020 BKN100